Time;durP1;ratioP1;P1;durP2;ratioP2;P2;SDS_P1;SDS_P2;PMS_P1;PMS_P2;Temp;Humidity;BMP_temperature;BMP_pressure;BME280_temperature;BME280_humidity;BME280_pressure;Samples;Min_cycle;Max_cycle;Signal;HPM_P1;HPM_P2
2022/11/06 00:00:58;;;;;;;10.05;3.25;;;;;;;9.99;86.73;98052.03;4487319;31;20101;-81
2022/11/06 00:03:25;;;;;;;10.13;3.42;;;;;;;10.83;83.68;98053.69;4487371;32;20115;-81
2022/11/06 00:08:41;;;;;;;5.35;1.73;;;;;;;10.91;82.30;98054.22;4487406;31;20098;-81
2022/11/06 00:11:10;;;;;;;6.95;2.25;;;;;;;10.68;83.57;98052.63;4487345;31;20104;-81
2022/11/06 00:13:38;;;;;;;7.18;2.65;;;;;;;10.63;84.20;98056.31;4487076;31;20107;-81
2022/11/06 00:16:08;;;;;;;8.10;2.62;;;;;;;10.25;86.36;98061.34;4486344;31;20088;-81
2022/11/06 00:18:36;;;;;;;7.95;2.83;;;;;;;10.25;86.11;98060.50;4487304;31;20072;-81
2022/11/06 00:21:10;;;;;;;7.87;2.55;;;;;;;10.30;86.48;98063.72;4486812;31;20097;-81
2022/11/06 00:23:38;;;;;;;7.47;2.80;;;;;;;10.31;86.24;98063.66;4487286;31;20443;-81
2022/11/06 00:26:09;;;;;;;7.45;3.08;;;;;;;10.26;87.20;98068.16;4485826;32;20084;-81
2022/11/06 00:28:37;;;;;;;9.63;3.20;;;;;;;10.13;87.13;98060.06;4486772;31;20080;-81
2022/11/06 00:31:11;;;;;;;7.93;3.47;;;;;;;10.24;86.03;98061.41;4486611;31;20093;-81
2022/11/06 00:33:38;;;;;;;8.13;3.03;;;;;;;10.08;86.62;98061.97;4487004;31;20499;-81
2022/11/06 00:36:08;;;;;;;8.27;3.20;;;;;;;10.07;86.31;98064.63;4486789;32;20100;-81
2022/11/06 00:38:35;;;;;;;10.60;3.67;;;;;;;10.18;86.82;98064.19;4485931;32;20426;-81
2022/11/06 00:41:05;;;;;;;7.75;2.80;;;;;;;10.44;85.75;98061.44;4486546;31;20096;-80
2022/11/06 00:43:32;;;;;;;8.02;2.90;;;;;;;10.14;85.61;98059.16;4486997;31;20096;-81
2022/11/06 00:46:07;;;;;;;8.55;3.05;;;;;;;10.03;85.90;98066.50;4486750;31;20103;-81
2022/11/06 00:48:35;;;;;;;9.77;3.60;;;;;;;10.31;84.42;98062.81;4486635;31;20103;-81
2022/11/06 00:51:03;;;;;;;9.27;2.90;;;;;;;9.88;86.76;98053.38;4486781;31;20488;-81
2022/11/06 00:53:30;;;;;;;9.30;3.33;;;;;;;10.46;83.25;98056.19;4486857;31;20096;-81
2022/11/06 00:56:09;;;;;;;6.68;2.45;;;;;;;10.58;82.24;98066.81;4486241;31;20107;-81
2022/11/06 00:58:36;;;;;;;9.80;2.83;;;;;;;10.03;84.96;98053.59;4486601;32;20541;-81
2022/11/06 01:01:11;;;;;;;12.52;3.60;;;;;;;9.86;85.26;98056.00;4486573;31;20120;-81
2022/11/06 01:03:40;;;;;;;9.65;3.05;;;;;;;9.92;86.22;98050.63;4486358;31;20106;-81
2022/11/06 01:06:09;;;;;;;7.70;2.78;;;;;;;10.67;81.15;98055.28;4486406;31;20130;-81
2022/11/06 01:08:37;;;;;;;8.68;3.08;;;;;;;10.18;83.42;98065.03;4486235;31;20449;-81
2022/11/06 01:11:09;;;;;;;8.38;2.53;;;;;;;9.88;85.78;98059.34;4486477;31;20146;-81
2022/11/06 01:13:36;;;;;;;7.62;2.72;;;;;;;10.19;83.75;98066.69;4486716;31;20097;-81
2022/11/06 01:16:05;;;;;;;6.95;2.62;;;;;;;9.75;86.42;98069.31;4485983;32;20106;-81
2022/11/06 01:18:34;;;;;;;8.52;3.33;;;;;;;10.00;85.31;98068.38;4486496;31;20084;-81
2022/11/06 01:21:12;;;;;;;11.10;3.40;;;;;;;10.05;83.96;98063.84;4486310;31;20096;-81
2022/11/06 01:23:40;;;;;;;10.32;3.40;;;;;;;9.97;85.20;98069.31;4486162;31;20096;-81
2022/11/06 01:26:08;;;;;;;11.25;3.53;;;;;;;10.09;84.35;98066.22;4486166;31;20084;-81
2022/11/06 01:28:35;;;;;;;8.98;3.12;;;;;;;9.65;85.73;98069.72;4487238;31;20071;-81
2022/11/06 01:31:04;;;;;;;9.25;3.30;;;;;;;9.94;84.86;98072.03;4487928;31;20089;-81
2022/11/06 01:33:31;;;;;;;9.20;3.33;;;;;;;10.29;82.83;98060.31;4488487;32;20107;-81
2022/11/06 01:35:57;;;;;;;;;;;;;;;10.23;83.22;98072.63;4488575;31;20088;-81
2022/11/06 01:38:25;;;;;;;8.25;3.10;;;;;;;10.53;81.79;98065.37;4488223;31;19968;-81
2022/11/06 01:40:53;;;;;;;9.40;3.28;;;;;;;10.10;84.66;98072.22;4488358;31;20197;-81
2022/11/06 01:43:25;;;;;;;8.43;3.20;;;;;;;10.06;84.13;98071.53;4488461;31;20134;-81
2022/11/06 01:45:54;;;;;;;10.20;2.85;;;;;;;9.62;86.25;98057.81;4488007;31;20103;-81
2022/11/06 01:48:26;;;;;;;8.07;3.37;;;;;;;10.23;84.23;98070.03;4487279;32;20077;-81
2022/11/06 01:50:55;;;;;;;8.23;3.00;;;;;;;10.01;83.86;98059.72;4486860;32;20100;-81
2022/11/06 01:53:23;;;;;;;11.93;3.58;;;;;;;10.08;84.88;98074.03;4488390;31;20080;-81
2022/11/06 01:55:54;;;;;;;9.13;3.03;;;;;;;10.36;83.47;98069.47;4488181;31;20145;-81
2022/11/06 01:58:23;;;;;;;9.77;3.17;;;;;;;10.36;83.49;98074.63;4486808;32;20095;-81
2022/11/06 02:00:50;;;;;;;11.68;3.75;;;;;;;9.95;84.19;98065.97;4488141;31;20092;-81
2022/11/06 02:03:17;;;;;;;9.23;3.22;;;;;;;9.79;84.93;98076.06;4488246;31;20103;-81
2022/11/06 02:05:45;;;;;;;11.32;3.25;;;;;;;10.23;83.48;98077.78;4486639;32;20475;-81
2022/11/06 02:08:13;;;;;;;6.15;2.37;;;;;;;10.68;81.99;98075.84;4487117;32;20080;-81
2022/11/06 02:10:41;;;;;;;11.35;3.33;;;;;;;10.19;83.06;98081.34;4487006;32;20104;-81
2022/11/06 02:13:34;;;;;;;9.73;3.12;;;;;;;9.95;84.79;98078.00;4486706;32;20096;-81
2022/11/06 02:16:30;;;;;;;9.48;3.00;;;;;;;9.99;85.37;98079.56;4488047;31;20085;-81
2022/11/06 02:19:09;;;;;;;12.02;3.58;;;;;;;10.13;83.50;98083.28;4487804;31;20419;-81
2022/11/06 02:21:59;;;;;;;12.13;3.53;;;;;;;10.20;83.91;98083.84;4488155;31;20091;-81
2022/11/06 02:24:40;;;;;;;17.48;3.50;;;;;;;9.92;85.34;98098.75;4486862;32;20109;-81
2022/11/06 02:27:17;;;;;;;10.35;3.30;;;;;;;10.05;84.49;98098.19;4486628;32;20076;-81
2022/11/06 02:30:05;;;;;;;9.68;3.60;;;;;;;10.46;82.91;98093.16;4486930;32;20098;-81
2022/11/06 02:32:49;;;;;;;11.65;3.95;;;;;;;10.30;83.15;98099.81;4488017;31;20428;-81
2022/11/06 02:35:35;;;;;;;10.75;3.53;;;;;;;10.15;84.07;98096.09;4486834;32;20108;-81
2022/11/06 02:38:11;;;;;;;9.43;3.22;;;;;;;10.79;82.13;98093.47;4486770;32;20084;-81
2022/11/06 02:40:47;;;;;;;7.65;3.00;;;;;;;10.91;81.58;98099.84;4486137;32;20144;-81
2022/11/06 02:43:15;;;;;;;11.48;3.35;;;;;;;10.34;83.32;98089.34;4486923;32;20371;-81
2022/11/06 02:45:51;;;;;;;12.23;4.10;;;;;;;10.48;83.04;98096.50;4486788;32;20096;-81
2022/11/06 02:48:21;;;;;;;12.25;2.97;;;;;;;10.23;84.64;98101.81;4487574;32;20111;-81
2022/11/06 02:50:49;;;;;;;12.20;3.90;;;;;;;10.22;86.50;98113.03;4486824;32;20084;-81
2022/11/06 02:53:19;;;;;;;9.38;3.65;;;;;;;10.36;85.60;98105.56;4486740;32;20134;-81
2022/11/06 02:55:52;;;;;;;12.57;4.30;;;;;;;10.34;86.31;98116.88;4487379;31;20097;-81
2022/11/06 02:58:28;;;;;;;10.75;3.45;;;;;;;10.34;85.68;98119.44;4487724;31;20080;-81
2022/11/06 03:01:22;;;;;;;10.73;3.85;;;;;;;10.69;84.63;98116.25;4487457;32;20106;-82
2022/11/06 03:03:53;;;;;;;11.20;3.60;;;;;;;11.32;81.45;98115.25;4487902;31;20115;-81
2022/11/06 03:06:28;;;;;;;11.77;3.70;;;;;;;10.83;82.85;98114.81;4486698;32;20113;-81
2022/11/06 03:09:12;;;;;;;11.07;4.12;;;;;;;10.94;83.72;98123.78;4486380;32;20372;-81
2022/11/06 03:11:39;;;;;;;10.60;3.35;;;;;;;11.20;83.47;98135.56;4486626;32;20076;-81
2022/11/06 03:14:31;;;;;;;10.90;4.30;;;;;;;11.38;82.54;98133.94;4487757;32;20091;-81
2022/11/06 03:17:11;;;;;;;9.43;3.87;;;;;;;11.21;82.66;98137.25;4487360;31;20092;-81
2022/11/06 03:19:48;;;;;;;11.20;3.37;;;;;;;10.74;84.52;98136.72;4486563;32;20080;-81
2022/11/06 03:22:36;;;;;;;9.80;3.35;;;;;;;10.73;83.82;98132.41;4486265;32;20092;-81
2022/11/06 03:25:03;;;;;;;;;;;;;;;10.96;83.32;98147.81;4486954;32;20134;-81
2022/11/06 03:27:49;;;;;;;12.13;3.72;;;;;;;10.68;84.41;98145.53;4487777;31;19998;-81
2022/11/06 03:30:16;;;;;;;10.18;3.35;;;;;;;10.66;84.90;98149.91;4487108;31;20495;-81
2022/11/06 03:33:00;;;;;;;9.18;3.10;;;;;;;11.36;80.96;98140.03;4487768;31;20095;-81
2022/11/06 03:35:35;;;;;;;12.73;3.40;;;;;;;10.85;83.29;98149.16;4486395;32;20122;-81
2022/11/06 03:38:18;;;;;;;10.70;4.03;;;;;;;10.52;83.43;98154.78;4487283;31;20084;-81
2022/11/06 03:40:57;;;;;;;10.70;3.40;;;;;;;10.21;85.41;98154.31;4486444;32;20092;-79
2022/11/06 03:43:28;;;;;;;12.77;3.58;;;;;;;9.98;87.25;98166.34;4487304;31;20078;-81
2022/11/06 03:45:56;;;;;;;12.82;3.80;;;;;;;10.59;84.53;98158.81;4486259;32;20112;-81
2022/11/06 03:48:30;;;;;;;9.77;3.90;;;;;;;10.25;85.85;98159.34;4487556;32;20092;-81
2022/11/06 03:51:11;;;;;;;12.43;4.25;;;;;;;10.48;85.29;98162.72;4484890;32;20092;-81
2022/11/06 03:53:51;;;;;;;10.60;3.72;;;;;;;10.53;84.40;98161.66;4486344;32;20099;-81
2022/11/06 03:56:21;;;;;;;10.45;4.25;;;;;;;11.18;82.02;98163.22;4486137;32;20451;-81
2022/11/06 03:58:48;;;;;;;11.55;3.92;;;;;;;10.08;85.43;98165.09;4487035;31;20157;-81
2022/11/06 04:01:20;;;;;;;11.00;2.80;;;;;;;10.85;82.92;98172.41;4487409;31;20088;-81
2022/11/06 04:03:54;;;;;;;13.62;4.32;;;;;;;10.46;84.63;98165.38;4486256;32;20719;-81
2022/11/06 04:06:51;;;;;;;12.80;4.07;;;;;;;10.77;82.51;98172.69;4485884;32;20119;-81
2022/11/06 04:14:54;;;;;;;9.27;3.50;;;;;;;10.12;85.54;98173.56;4487309;31;20107;-81
2022/11/06 04:17:23;;;;;;;13.15;3.85;;;;;;;10.47;84.38;98174.78;4487238;31;20100;-81
2022/11/06 04:19:58;;;;;;;11.15;3.60;;;;;;;11.44;79.60;98161.22;4485695;32;20096;-81
2022/11/06 04:22:44;;;;;;;12.30;4.15;;;;;;;11.27;80.17;98167.97;4487396;31;20087;-81
2022/11/06 04:29:40;;;;;;;12.35;3.80;;;;;;;11.20;80.03;98169.13;4484251;31;20614;-81
2022/11/06 04:32:13;;;;;;;11.45;3.45;;;;;;;10.15;86.04;98166.56;4486805;31;20088;-82
2022/11/06 04:34:46;;;;;;;10.63;3.50;;;;;;;10.34;85.79;98164.13;4487016;31;20163;-81
2022/11/06 04:37:33;;;;;;;10.07;3.37;;;;;;;10.77;83.71;98164.97;4487097;31;20077;-81
2022/11/06 04:40:18;;;;;;;12.27;3.97;;;;;;;10.95;82.25;98168.50;4478217;31;20122;-81
2022/11/06 04:42:52;;;;;;;15.45;3.87;;;;;;;11.32;80.45;98159.19;4487145;31;20096;-81
2022/11/06 04:45:29;;;;;;;13.68;3.80;;;;;;;11.23;79.54;98161.25;4486860;31;20089;-81
2022/11/06 04:47:57;;;;;;;11.65;4.22;;;;;;;11.06;80.81;98155.13;4485455;32;20107;-81
2022/11/06 04:50:26;;;;;;;10.77;3.35;;;;;;;11.19;79.45;98169.22;4485669;32;20153;-81
2022/11/06 04:52:54;;;;;;;11.52;4.40;;;;;;;10.67;81.51;98167.09;4485700;32;20119;-81
2022/11/06 04:55:21;;;;;;;13.82;4.28;;;;;;;11.47;78.31;98169.66;4486331;31;20504;-81
2022/11/06 04:57:48;;;;;;;9.65;3.40;;;;;;;11.17;79.58;98168.44;4485473;32;20072;-81
2022/11/06 05:00:15;;;;;;;11.07;3.85;;;;;;;11.59;76.64;98165.72;4486373;31;20096;-82
2022/11/06 05:02:42;;;;;;;9.60;3.45;;;;;;;11.54;77.43;98167.66;4486480;32;20448;-81
2022/11/06 05:05:09;;;;;;;10.95;3.65;;;;;;;11.22;77.99;98169.91;4488588;31;20101;-81
2022/11/06 05:07:36;;;;;;;10.57;3.37;;;;;;;11.91;75.26;98169.47;4488302;31;20422;-81
2022/11/06 05:10:04;;;;;;;11.75;3.70;;;;;;;11.52;76.02;98172.06;4488512;31;20100;-81
2022/11/06 05:12:31;;;;;;;8.85;3.40;;;;;;;11.69;75.70;98174.69;4488627;32;20111;-81
2022/11/06 05:14:58;;;;;;;12.05;3.80;;;;;;;11.30;76.27;98170.41;4488167;31;20088;-81
2022/11/06 05:17:25;;;;;;;10.90;4.18;;;;;;;11.15;78.46;98177.97;4488653;31;20145;-81
2022/11/06 05:19:52;;;;;;;11.12;3.78;;;;;;;10.83;79.27;98180.16;4488479;31;20134;-81
2022/11/06 05:25:05;;;;;;;10.80;3.62;;;;;;;11.21;78.52;98175.16;4488495;31;20107;-81
2022/11/06 05:27:32;;;;;;;10.85;3.67;;;;;;;11.64;76.63;98175.84;4488674;31;20497;-81
2022/11/06 05:29:58;;;;;;;;;;;;;;;11.46;77.06;98177.47;4488165;31;20367;-81
2022/11/06 05:32:25;;;;;;;9.48;3.72;;;;;;;11.04;78.78;98187.94;4488637;31;19984;-81
2022/11/06 05:34:52;;;;;;;10.25;3.60;;;;;;;10.96;79.65;98183.09;4488381;31;20089;-81
2022/11/06 05:37:19;;;;;;;;;;;;;;;11.23;78.02;98186.25;4487398;32;20077;-81
2022/11/06 05:39:46;;;;;;;13.15;4.28;;;;;;;10.52;80.65;98198.66;4488441;31;19986;-81
2022/11/06 05:42:13;;;;;;;10.85;3.45;;;;;;;10.47;81.55;98200.59;4488088;31;20076;-82
2022/11/06 05:44:40;;;;;;;;;;;;;;;10.23;82.57;98194.66;4488599;31;20103;-81
2022/11/06 05:47:07;;;;;;;15.10;4.53;;;;;;;10.80;80.10;98200.13;4488457;31;19979;-81
2022/11/06 05:49:34;;;;;;;11.52;4.22;;;;;;;10.33;82.41;98203.72;4487953;31;20101;-81
2022/11/06 05:52:00;;;;;;;12.60;4.07;;;;;;;10.47;81.30;98198.00;4488310;32;20093;-81
2022/11/06 05:54:27;;;;;;;12.20;3.78;;;;;;;10.00;83.62;98210.97;4488355;31;20098;-80
2022/11/06 05:56:54;;;;;;;;;;;;;;;10.67;80.86;98218.69;4488269;31;20103;-81
2022/11/06 05:59:21;;;;;;;12.82;4.70;;;;;;;11.21;77.71;98212.13;4488339;31;19971;-81
2022/11/06 06:01:48;;;;;;;13.38;4.40;;;;;;;10.72;78.91;98221.91;4488203;31;20503;-81
2022/11/06 06:04:15;;;;;;;13.13;3.97;;;;;;;10.30;81.62;98221.88;4487956;31;20088;-80
2022/11/06 06:06:42;;;;;;;12.20;4.45;;;;;;;10.59;79.99;98218.16;4488510;31;20099;-81
2022/11/06 06:09:08;;;;;;;;;;;;;;;10.45;80.48;98224.78;4488586;31;20080;-81
2022/11/06 06:11:35;;;;;;;16.30;4.45;;;;;;;10.83;79.78;98234.38;4488038;32;19994;-81
2022/11/06 06:14:02;;;;;;;10.30;4.22;;;;;;;10.31;81.63;98235.59;4487549;31;20085;-81
2022/11/06 06:16:29;;;;;;;11.93;4.47;;;;;;;10.05;82.52;98237.41;4487952;31;20355;-81
2022/11/06 06:18:56;;;;;;;13.68;4.10;;;;;;;10.03;82.93;98243.53;4487840;32;20134;-81
2022/11/06 06:21:23;;;;;;;9.55;3.35;;;;;;;10.17;81.40;98232.69;4488114;31;20150;-81
2022/11/06 06:23:50;;;;;;;;;;;;;;;10.75;79.92;98244.19;4488477;32;20085;-81
2022/11/06 06:26:17;;;;;;;11.57;3.95;;;;;;;10.38;81.08;98243.06;4487720;31;19978;-81
2022/11/06 06:28:47;;;;;;;12.18;4.43;;;;;;;10.94;78.04;98247.69;4488100;31;20596;-81
2022/11/06 06:31:14;;;;;;;11.98;4.62;;;;;;;10.61;80.04;98247.31;4487801;31;20418;-81
2022/11/06 06:33:41;;;;;;;11.75;4.70;;;;;;;10.38;80.79;98248.22;4487759;31;20099;-81
2022/11/06 06:36:08;;;;;;;;;;;;;;;10.04;82.89;98252.94;4488169;31;20077;-81
2022/11/06 06:38:35;;;;;;;13.70;3.47;;;;;;;9.99;84.03;98260.00;4487802;31;19984;-81
2022/11/06 06:41:04;;;;;;;13.02;4.47;;;;;;;10.56;80.79;98258.72;4486783;32;20096;-81
2022/11/06 06:43:31;;;;;;;9.35;3.53;;;;;;;10.37;80.82;98268.91;4486810;32;20141;-81
2022/11/06 06:46:01;;;;;;;12.32;4.20;;;;;;;10.71;79.67;98268.44;4487463;31;20076;-81
2022/11/06 06:48:28;;;;;;;11.95;4.07;;;;;;;10.44;80.44;98267.78;4488008;32;20116;-81
2022/11/06 06:50:56;;;;;;;12.80;4.82;;;;;;;10.87;78.58;98279.84;4487798;32;20111;-81
2022/11/06 06:53:23;;;;;;;15.00;4.30;;;;;;;11.01;77.80;98277.53;4487578;31;20076;-81
2022/11/06 06:55:51;;;;;;;15.57;4.87;;;;;;;10.74;78.51;98273.50;4487736;31;20076;-81
2022/11/06 06:58:18;;;;;;;15.70;4.40;;;;;;;10.47;80.59;98271.97;4487892;31;20395;-81
2022/11/06 07:00:46;;;;;;;8.98;3.60;;;;;;;10.64;79.12;98272.16;4487483;31;20105;-81
2022/11/06 07:03:13;;;;;;;11.02;4.18;;;;;;;10.90;77.55;98284.88;4487788;31;20449;-81
2022/11/06 07:05:39;;;;;;;;;;;;;;;10.47;80.30;98284.88;4488128;31;20465;-81
2022/11/06 07:08:06;;;;;;;11.73;3.67;;;;;;;10.79;78.51;98281.03;4487419;32;19998;-81
2022/11/06 07:10:33;;;;;;;;;;;;;;;10.69;80.01;98286.56;4488088;31;20111;-81
2022/11/06 07:13:03;;;;;;;9.73;3.70;;;;;;;10.70;79.46;98289.97;4487892;31;19986;-81
2022/11/06 07:15:31;;;;;;;13.88;4.97;;;;;;;11.04;78.79;98291.19;4487429;31;20473;-81
2022/11/06 07:18:05;;;;;;;11.05;4.12;;;;;;;10.36;81.31;98285.28;4487790;31;20096;-81
2022/11/06 07:20:32;;;;;;;11.38;4.18;;;;;;;10.12;81.81;98287.03;4487440;31;20108;-82
2022/11/06 07:23:04;;;;;;;12.80;4.18;;;;;;;10.92;79.04;98292.53;4487738;31;20095;-81
2022/11/06 07:25:31;;;;;;;10.82;4.55;;;;;;;11.26;77.32;98292.84;4487604;31;20084;-82
2022/11/06 07:28:04;;;;;;;;;;;;;;;11.17;77.63;98297.56;4487740;31;20092;-81
2022/11/06 07:30:33;;;;;;;12.25;4.32;;;;;;;11.45;77.05;98297.25;4487407;31;19975;-81
2022/11/06 07:33:01;;;;;;;13.15;4.25;;;;;;;11.57;75.95;98294.13;4487645;31;20083;-81
2022/11/06 07:35:28;;;;;;;13.95;4.60;;;;;;;11.19;77.39;98301.75;4487057;32;20092;-81
2022/11/06 07:37:55;;;;;;;11.55;4.68;;;;;;;11.47;76.38;98301.44;4487659;31;20415;-81
2022/11/06 07:40:22;;;;;;;12.95;3.85;;;;;;;12.22;73.27;98298.19;4487449;31;20427;-81
2022/11/06 07:42:49;;;;;;;13.85;4.80;;;;;;;11.60;74.89;98304.38;4487171;31;20088;-81
2022/11/06 07:45:15;;;;;;;;;;;;;;;11.55;75.81;98298.53;4487744;31;20096;-81
2022/11/06 07:47:42;;;;;;;15.43;4.30;;;;;;;11.28;76.58;98297.97;4487710;32;19994;-81
2022/11/06 07:50:09;;;;;;;12.05;3.95;;;;;;;11.67;74.50;98292.00;4487144;31;20461;-81
2022/11/06 07:52:36;;;;;;;10.35;3.87;;;;;;;12.14;72.36;98292.53;4487501;31;20080;-81
2022/11/06 07:55:03;;;;;;;;;;;;;;;11.54;74.61;98307.19;4487844;31;20102;-81
2022/11/06 07:57:34;;;;;;;10.88;4.05;;;;;;;11.62;75.45;98299.97;4487061;31;19975;-81
2022/11/06 08:00:02;;;;;;;12.30;4.90;;;;;;;11.96;73.65;98294.19;4487320;31;20118;-81
2022/11/06 08:02:29;;;;;;;11.25;4.03;;;;;;;12.09;72.83;98299.66;4487481;31;20099;-81
2022/11/06 08:04:56;;;;;;;12.63;4.12;;;;;;;11.38;75.10;98295.81;4487187;31;20481;-81
2022/11/06 08:07:23;;;;;;;11.63;4.10;;;;;;;11.79;73.86;98289.75;4487400;31;20085;-81
2022/11/06 08:09:50;;;;;;;11.55;4.18;;;;;;;11.62;75.18;98291.38;4486965;31;20112;-82
2022/11/06 08:12:16;;;;;;;13.23;4.32;;;;;;;12.05;73.65;98288.59;4487383;31;20076;-82
2022/11/06 08:14:43;;;;;;;11.35;4.07;;;;;;;12.68;71.16;98290.91;4487189;31;20084;-81
2022/11/06 08:17:10;;;;;;;11.38;4.30;;;;;;;12.90;69.72;98283.78;4486901;31;20360;-81
2022/11/06 08:19:37;;;;;;;11.75;4.18;;;;;;;12.18;71.92;98294.06;4486989;31;20092;-81
2022/11/06 08:22:04;;;;;;;10.57;4.10;;;;;;;12.37;71.72;98296.66;4487129;32;20099;-81
2022/11/06 08:24:31;;;;;;;11.55;4.12;;;;;;;12.07;73.17;98296.28;4485554;32;20435;-81
2022/11/06 08:26:58;;;;;;;11.85;3.90;;;;;;;11.48;75.29;98297.09;4487167;31;20092;-81
2022/11/06 08:29:25;;;;;;;11.27;4.50;;;;;;;12.30;72.30;98301.25;4487155;31;20092;-81
2022/11/06 08:31:52;;;;;;;11.52;4.07;;;;;;;12.27;72.29;98298.00;4486486;31;20084;-80
2022/11/06 08:34:19;;;;;;;12.37;4.40;;;;;;;11.33;75.73;98305.50;4487019;31;20077;-80
2022/11/06 08:36:48;;;;;;;11.93;4.10;;;;;;;11.74;74.86;98302.00;4486405;31;20093;-81
2022/11/06 08:39:15;;;;;;;12.65;4.12;;;;;;;11.59;76.18;98294.94;4486657;31;20079;-81
2022/11/06 08:41:43;;;;;;;12.93;4.00;;;;;;;12.13;73.50;98290.84;4486890;31;20096;-81
2022/11/06 08:44:10;;;;;;;13.10;3.80;;;;;;;11.59;75.01;98293.19;4486963;31;20508;-81
2022/11/06 08:46:37;;;;;;;12.05;4.10;;;;;;;11.47;75.71;98293.69;4486382;31;20085;-81
2022/11/06 08:49:04;;;;;;;12.60;3.90;;;;;;;11.26;76.68;98295.41;4486907;31;20513;-81
2022/11/06 08:51:31;;;;;;;;;;;;;;;12.03;74.16;98293.00;4487118;31;20366;-81
2022/11/06 08:53:58;;;;;;;10.88;3.67;;;;;;;11.74;75.67;98293.41;4486505;31;19990;-81
2022/11/06 08:56:25;;;;;;;12.88;4.20;;;;;;;12.23;73.69;98283.50;4486546;31;20096;-81
2022/11/06 08:58:52;;;;;;;14.15;5.50;;;;;;;12.90;70.85;98288.13;4486497;31;20111;-82
2022/11/06 09:01:22;;;;;;;13.27;4.50;;;;;;;13.11;69.36;98284.47;4486567;31;20088;-82
2022/11/06 09:03:50;;;;;;;14.13;4.18;;;;;;;13.17;69.38;98289.34;4486650;31;20098;-81
2022/11/06 09:06:17;;;;;;;9.80;4.03;;;;;;;13.69;67.29;98283.31;4486108;31;20100;-81
2022/11/06 09:08:44;;;;;;;14.10;4.45;;;;;;;12.46;71.73;98291.06;4486722;31;20123;-81
2022/11/06 09:11:11;;;;;;;11.20;4.12;;;;;;;13.00;70.40;98286.75;4486397;31;20197;-81
2022/11/06 09:13:38;;;;;;;12.88;4.32;;;;;;;12.13;72.54;98276.19;4486098;32;20102;-81
2022/11/06 09:16:05;;;;;;;12.48;4.35;;;;;;;13.14;70.11;98276.56;4486545;31;20139;-81
2022/11/06 09:18:40;;;;;;;11.70;4.00;;;;;;;13.24;69.56;98277.81;4486376;31;20104;-81
2022/11/06 09:21:06;;;;;;;12.82;4.68;;;;;;;14.08;65.50;98270.87;4485968;31;20092;-82
2022/11/06 09:23:34;;;;;;;10.98;4.25;;;;;;;13.84;65.70;98282.56;4485217;32;20076;-81
2022/11/06 09:26:01;;;;;;;11.43;4.00;;;;;;;14.85;63.03;98282.28;4486234;31;20097;-81
2022/11/06 09:28:28;;;;;;;12.82;4.20;;;;;;;13.10;68.98;98281.97;4486023;31;20100;-81
2022/11/06 09:30:55;;;;;;;13.00;4.32;;;;;;;13.35;68.34;98287.63;4485936;31;20080;-81
2022/11/06 09:33:21;;;;;;;10.82;3.97;;;;;;;13.51;67.04;98278.19;4486269;31;20092;-81
2022/11/06 09:35:48;;;;;;;12.20;4.55;;;;;;;14.81;62.68;98286.81;4484444;32;20109;-81
2022/11/06 09:38:15;;;;;;;11.65;4.65;;;;;;;14.11;65.07;98280.25;4486148;31;20473;-81
2022/11/06 09:40:46;;;;;;;12.18;4.37;;;;;;;14.67;63.43;98276.34;4485923;32;20450;-81
2022/11/06 09:43:39;;;;;;;14.23;4.22;;;;;;;15.41;59.94;98278.19;4486117;31;20080;-81
2022/11/06 09:46:29;;;;;;;11.68;4.15;;;;;;;14.99;61.64;98277.13;4485658;31;20430;-81
2022/11/06 09:48:58;;;;;;;10.07;3.65;;;;;;;14.83;61.49;98271.97;4471994;32;20478;-82
2022/11/06 09:51:35;;;;;;;12.98;3.95;;;;;;;15.16;60.88;98270.97;4488377;31;20088;-81
2022/11/06 09:54:22;;;;;;;11.57;4.20;;;;;;;13.60;66.19;98269.91;4488427;31;20110;-81
2022/11/06 09:56:54;;;;;;;10.82;3.95;;;;;;;13.90;65.28;98264.88;4487927;31;20159;-81
2022/11/06 09:59:21;;;;;;;12.07;4.15;;;;;;;14.04;66.55;98266.78;4487090;32;20383;-82
2022/11/06 10:01:56;;;;;;;13.43;4.07;;;;;;;14.04;66.09;98260.75;4487921;31;20085;-82
2022/11/06 10:04:56;;;;;;;13.62;4.53;;;;;;;14.78;62.55;98261.03;4486983;32;20102;-81
2022/11/06 10:07:39;;;;;;;12.88;4.30;;;;;;;14.67;62.34;98265.97;4481774;32;20091;-81
2022/11/06 10:10:13;;;;;;;11.05;4.40;;;;;;;16.24;57.87;98268.84;4486655;32;20685;-81
2022/11/06 10:12:46;;;;;;;14.43;4.70;;;;;;;16.45;56.83;98270.97;4487054;32;20084;-81
2022/11/06 10:15:26;;;;;;;14.13;4.90;;;;;;;15.99;57.80;98266.94;4486856;32;20111;-81
2022/11/06 10:18:09;;;;;;;15.13;4.45;;;;;;;14.23;64.85;98273.56;4486594;32;20104;-82
2022/11/06 10:20:49;;;;;;;12.07;4.55;;;;;;;15.57;59.78;98273.75;4486904;32;20127;-81
2022/11/06 10:23:21;;;;;;;13.73;4.35;;;;;;;16.85;55.79;98271.06;4486746;32;20107;-82
2022/11/06 10:26:09;;;;;;;13.75;4.22;;;;;;;16.88;54.54;98275.22;4487962;31;20084;-81
2022/11/06 10:29:01;;;;;;;11.02;4.22;;;;;;;16.03;57.28;98268.41;4486865;32;20104;-81
2022/11/06 10:31:45;;;;;;;11.35;4.20;;;;;;;16.66;56.24;98265.31;4487435;31;20097;-81
2022/11/06 10:34:52;;;;;;;10.90;4.00;;;;;;;16.29;57.28;98262.44;4488101;31;20084;-82
2022/11/06 10:37:24;;;;;;;11.18;4.20;;;;;;;17.55;53.75;98270.78;4438577;32;20132;-82
2022/11/06 10:39:52;;;;;;;12.35;4.95;;;;;;;16.30;56.50;98265.88;4479801;31;20437;-82
2022/11/06 10:42:21;;;;;;;11.68;4.37;;;;;;;16.93;54.14;98268.81;4487954;31;20088;-81
2022/11/06 10:44:50;;;;;;;12.80;4.28;;;;;;;17.40;52.73;98272.66;4486443;32;20088;-81
2022/11/06 10:47:19;;;;;;;11.00;4.30;;;;;;;17.57;52.47;98269.75;4487888;31;20141;-81
2022/11/06 10:50:00;;;;;;;12.60;4.05;;;;;;;17.95;51.52;98271.53;4487772;31;20097;-82
2022/11/06 10:52:54;;;;;;;13.70;4.05;;;;;;;17.86;51.35;98269.53;4486546;32;20123;-81
2022/11/06 10:55:38;;;;;;;12.05;4.20;;;;;;;17.08;53.81;98264.34;4487792;31;20106;-81
2022/11/06 10:58:26;;;;;;;12.23;4.07;;;;;;;15.87;57.61;98261.56;4487526;32;20514;-82
2022/11/06 11:00:57;;;;;;;9.45;3.75;;;;;;;17.10;54.12;98256.41;4487356;31;20100;-82
2022/11/06 11:03:29;;;;;;;12.80;3.87;;;;;;;16.03;57.08;98245.81;4487989;31;20689;-81
2022/11/06 11:05:56;;;;;;;15.50;4.53;;;;;;;15.77;57.84;98255.22;4487281;31;20466;-81
2022/11/06 11:08:55;;;;;;;11.85;4.43;;;;;;;17.16;54.16;98253.41;4487917;31;20094;-82
2022/11/06 11:11:48;;;;;;;11.65;3.53;;;;;;;16.47;55.39;98247.41;4487715;32;20141;-81
2022/11/06 11:14:22;;;;;;;13.62;5.22;;;;;;;18.10;50.82;98244.38;4486265;32;20112;-81
2022/11/06 11:16:49;;;;;;;11.38;4.00;;;;;;;17.59;52.00;98246.16;4487743;31;20826;-82
2022/11/06 11:19:37;;;;;;;11.80;3.97;;;;;;;18.34;50.01;98247.03;4487337;31;20085;-82
2022/11/06 11:22:16;;;;;;;10.93;3.80;;;;;;;18.01;50.57;98247.63;4487694;31;20104;-81
2022/11/06 11:25:07;;;;;;;11.88;4.22;;;;;;;17.25;52.62;98248.44;4487644;31;20371;-81
2022/11/06 11:27:41;;;;;;;11.07;3.90;;;;;;;17.15;52.78;98254.34;4487392;31;20085;-81
2022/11/06 11:30:22;;;;;;;13.05;4.28;;;;;;;17.59;51.90;98244.38;4487410;31;20077;-81
2022/11/06 11:32:49;;;;;;;13.25;4.40;;;;;;;17.45;53.17;98241.06;4487801;31;20116;-82
2022/11/06 11:35:19;;;;;;;12.88;4.53;;;;;;;17.66;52.25;98246.59;4487248;32;20097;-82
2022/11/06 11:37:46;;;;;;;9.82;4.32;;;;;;;18.42;49.65;98238.66;4487651;31;20131;-81
2022/11/06 11:40:35;;;;;;;11.82;4.22;;;;;;;18.62;48.98;98245.88;4487082;31;20181;-82
2022/11/06 11:43:26;;;;;;;14.00;4.53;;;;;;;19.16;47.06;98236.75;4486526;32;20158;-81
2022/11/06 11:46:08;;;;;;;12.27;4.03;;;;;;;18.76;47.73;98245.75;4486256;32;20142;-81
2022/11/06 11:48:45;;;;;;;10.15;3.92;;;;;;;18.00;49.59;98235.50;4487203;31;20085;-81
2022/11/06 11:51:25;;;;;;;12.00;4.10;;;;;;;17.67;50.63;98238.66;4486358;32;20587;-81
2022/11/06 11:53:55;;;;;;;12.63;4.15;;;;;;;17.20;53.25;98242.66;4487536;31;20243;-81
2022/11/06 11:56:22;;;;;;;10.88;4.47;;;;;;;17.80;51.27;98238.66;4485720;32;20108;-81
2022/11/06 11:59:15;;;;;;;10.88;4.07;;;;;;;17.53;52.21;98244.78;4487476;31;20119;-81
2022/11/06 12:01:42;;;;;;;12.05;4.03;;;;;;;18.06;50.24;98245.50;4485835;32;20431;-81
2022/11/06 12:04:14;;;;;;;13.07;4.70;;;;;;;17.90;51.26;98237.09;4487389;31;20096;-81
2022/11/06 12:06:59;;;;;;;12.60;4.20;;;;;;;18.27;49.62;98242.34;4487287;31;20088;-81
2022/11/06 12:09:29;;;;;;;11.45;4.05;;;;;;;17.68;51.13;98244.69;4487116;31;20084;-81